Time;durP1;ratioP1;P1;durP2;ratioP2;P2;SDS_P1;SDS_P2;PMS_P1;PMS_P2;Temp;Humidity;BMP_temperature;BMP_pressure;BME280_temperature;BME280_humidity;BME280_pressure;Samples;Min_cycle;Max_cycle;Signal;HPM_P1;HPM_P2
2024/04/07 00:02:14;;;;;;;2.88;1.63;;;;;;;;;;6372892;23;20027;-81
2024/04/07 00:05:25;;;;;;;2.70;2.05;;;;;;;;;;6398128;23;20021;-81
2024/04/07 00:08:20;;;;;;;4.28;2.00;;;;;;;;;;6381737;23;20025;-82
2024/04/07 00:10:56;;;;;;;5.07;2.08;;;;;;;;;;6404246;23;20024;-81
2024/04/07 00:13:27;;;;;;;4.70;1.98;;;;;;;;;;6375695;23;20511;-81
2024/04/07 00:15:59;;;;;;;7.85;2.10;;;;;;;;;;6376752;23;20044;-82
2024/04/07 00:18:31;;;;;;;4.72;2.22;;;;;;;;;;6378993;23;20304;-82
2024/04/07 00:21:02;;;;;;;4.78;1.80;;;;;;;;;;6351633;23;20139;-82
2024/04/07 00:23:34;;;;;;;4.10;1.70;;;;;;;;;;6401742;23;20062;-83
2024/04/07 00:26:09;;;;;;;3.80;2.03;;;;;;;;;;6371629;23;20025;-82
2024/04/07 00:28:42;;;;;;;2.63;1.80;;;;;;;;;;6396843;23;20044;-82
2024/04/07 00:31:13;;;;;;;4.50;1.70;;;;;;;;;;6375543;23;20091;-81
2024/04/07 00:33:45;;;;;;;4.88;2.05;;;;;;;;;;6373405;23;20009;-81
2024/04/07 00:36:16;;;;;;;6.10;2.70;;;;;;;;;;6374273;23;20020;-83
2024/04/07 00:38:48;;;;;;;4.55;2.00;;;;;;;;;;6375080;23;20013;-82
2024/04/07 00:41:20;;;;;;;2.65;1.77;;;;;;;;;;6401195;23;20020;-81
2024/04/07 00:47:22;;;;;;;4.57;1.73;;;;;;;;;;6396042;23;20020;-82
2024/04/07 00:49:53;;;;;;;2.97;1.77;;;;;;;;;;6401322;23;20063;-82
2024/04/07 00:52:25;;;;;;;6.65;2.05;;;;;;;;;;6399361;23;20070;-82
2024/04/07 00:55:02;;;;;;;4.30;1.60;;;;;;;;;;6401596;23;20020;-81
2024/04/07 00:58:07;;;;;;;8.10;1.70;;;;;;;;;;6401636;23;20100;-82
2024/04/07 01:05:42;;;;;;;3.85;1.58;;;;;;;;;;6234361;23;20022;-81
2024/04/07 01:08:13;;;;;;;2.58;1.65;;;;;;;;;;6289554;23;20030;-81
2024/04/07 01:10:55;;;;;;;5.65;1.75;;;;;;;;;;6372823;23;20634;-82
2024/04/07 01:13:34;;;;;;;6.80;1.45;;;;;;;;;;6377350;23;20464;-82
2024/04/07 01:16:06;;;;;;;5.50;1.60;;;;;;;;;;6396695;23;20091;-81
2024/04/07 01:18:57;;;;;;;4.93;1.63;;;;;;;;;;6399831;23;20073;-81
2024/04/07 01:25:00;;;;;;;5.03;1.40;;;;;;;;;;6233689;23;20246;-81
2024/04/07 01:27:31;;;;;;;4.22;1.50;;;;;;;;;;6378622;23;20020;-81
2024/04/07 01:30:06;;;;;;;7.40;1.52;;;;;;;;;;6350254;23;20025;-81
2024/04/07 01:32:42;;;;;;;6.47;1.63;;;;;;;;;;6375716;23;20021;-81
2024/04/07 01:35:34;;;;;;;7.80;1.98;;;;;;;;;;6374077;23;20096;-81
2024/04/07 01:38:21;;;;;;;;;;;;;;;;;;;;;
2024/04/07 01:57:59;;;;;;;5.20;1.75;;;;;;;;;;6122254;24;20556;-82
2024/04/07 02:05:35;;;;;;;4.13;1.58;;;;;;;;;;6285619;23;20030;-81
2024/04/07 02:08:11;;;;;;;4.50;1.48;;;;;;;;;;6288080;23;20426;-82
2024/04/07 02:10:50;;;;;;;6.70;1.38;;;;;;;;;;6354312;23;20025;-83
2024/04/07 02:16:10;;;;;;;4.57;1.92;;;;;;;;;;6376921;23;20016;-81
2024/04/07 02:17:26;;;;;;;6.47;2.05;;;;;;;;;;6255712;23;20104;-81
2024/04/07 02:19:58;;;;;;;5.20;1.70;;;;;;;;;;6401674;23;20024;-81
2024/04/07 02:22:29;;;;;;;7.90;1.90;;;;;;;;;;6404468;23;20017;-81
2024/04/07 02:25:09;;;;;;;7.20;1.75;;;;;;;;;;6407234;23;20109;-81
2024/04/07 02:28:16;;;;;;;6.38;1.65;;;;;;;;;;6366828;23;20547;-82
2024/04/07 02:31:02;;;;;;;4.38;1.52;;;;;;;;;;6401487;23;20464;-81
2024/04/07 02:42:06;;;;;;;5.40;1.60;;;;;;;;;;6297295;23;20074;-82
2024/04/07 02:54:13;;;;;;;4.28;2.17;;;;;;;;;;6390714;23;20024;-81
2024/04/07 02:57:26;;;;;;;5.78;1.90;;;;;;;;;;6362673;23;20052;-82
2024/04/07 03:00:01;;;;;;;5.68;2.15;;;;;;;;;;6401731;23;20021;-81
2024/04/07 03:02:37;;;;;;;7.20;2.53;;;;;;;;;;6380764;23;20020;-81
2024/04/07 03:05:18;;;;;;;7.53;2.28;;;;;;;;;;6357494;23;20028;-81
2024/04/07 03:07:58;;;;;;;5.72;2.20;;;;;;;;;;6381373;23;20016;-82
2024/04/07 03:10:29;;;;;;;8.43;2.35;;;;;;;;;;6402199;23;20084;-81
2024/04/07 03:13:01;;;;;;;3.83;1.90;;;;;;;;;;6405393;23;20024;-83
2024/04/07 03:15:35;;;;;;;8.57;2.40;;;;;;;;;;6401078;23;20035;-81
2024/04/07 03:18:26;;;;;;;4.40;2.00;;;;;;;;;;6376756;23;20000;-81
2024/04/07 03:20:59;;;;;;;6.82;2.45;;;;;;;;;;6378460;23;20032;-81
2024/04/07 03:23:40;;;;;;;5.45;2.13;;;;;;;;;;6380206;23;20028;-82
2024/04/07 03:27:10;;;;;;;8.02;2.30;;;;;;;;;;6416298;23;20025;-83
2024/04/07 03:29:55;;;;;;;5.50;2.15;;;;;;;;;;6399144;23;20028;-82
2024/04/07 03:32:48;;;;;;;4.90;1.90;;;;;;;;;;6377651;23;20020;-82
2024/04/07 03:35:33;;;;;;;3.97;1.90;;;;;;;;;;6377841;23;20522;-81
2024/04/07 03:38:13;;;;;;;6.22;2.10;;;;;;;;;;6353338;23;20024;-82
2024/04/07 03:40:50;;;;;;;5.85;2.17;;;;;;;;;;6403736;23;20016;-82
2024/04/07 03:43:21;;;;;;;7.88;2.33;;;;;;;;;;6401853;23;20028;-84
2024/04/07 03:45:59;;;;;;;4.75;1.50;;;;;;;;;;6349586;23;20707;-82
2024/04/07 03:48:32;;;;;;;3.80;1.77;;;;;;;;;;6400718;23;20012;-81
2024/04/07 03:51:07;;;;;;;5.57;1.80;;;;;;;;;;6400357;23;20031;-81
2024/04/07 03:53:39;;;;;;;3.90;1.77;;;;;;;;;;6377517;23;20179;-82
2024/04/07 03:56:23;;;;;;;5.57;1.98;;;;;;;;;;6401964;23;20027;-82
2024/04/07 03:59:30;;;;;;;4.20;2.00;;;;;;;;;;6368169;23;20087;-81
2024/04/07 04:02:02;;;;;;;3.90;1.70;;;;;;;;;;6384128;23;20046;-82
2024/04/07 04:04:36;;;;;;;6.70;1.98;;;;;;;;;;6400251;23;20389;-82
2024/04/07 04:07:09;;;;;;;3.33;1.63;;;;;;;;;;6377612;23;20024;-82
2024/04/07 04:09:42;;;;;;;4.75;1.40;;;;;;;;;;6403161;23;20538;-82
2024/04/07 04:12:14;;;;;;;3.45;1.80;;;;;;;;;;6376824;23;20044;-81
2024/04/07 04:14:45;;;;;;;4.35;1.63;;;;;;;;;;6401774;23;20016;-82
2024/04/07 04:17:17;;;;;;;3.55;1.63;;;;;;;;;;6401874;23;20020;-81
2024/04/07 04:19:50;;;;;;;3.35;1.58;;;;;;;;;;6402286;23;20016;-83
2024/04/07 04:22:22;;;;;;;5.22;1.80;;;;;;;;;;6374984;23;20795;-83
2024/04/07 04:24:54;;;;;;;4.18;1.30;;;;;;;;;;6349801;23;20024;-82
2024/04/07 04:27:26;;;;;;;5.97;1.30;;;;;;;;;;6397952;23;20020;-82
2024/04/07 04:29:57;;;;;;;5.57;1.95;;;;;;;;;;6366945;23;20050;-81
2024/04/07 04:32:32;;;;;;;6.30;1.90;;;;;;;;;;6399286;23;20040;-81
2024/04/07 04:35:05;;;;;;;4.80;1.50;;;;;;;;;;6401373;23;20013;-81
2024/04/07 04:37:37;;;;;;;3.85;1.52;;;;;;;;;;6374336;23;20059;-81
2024/04/07 04:40:19;;;;;;;5.53;1.60;;;;;;;;;;6400196;23;20024;-81
2024/04/07 04:51:46;;;;;;;3.42;1.42;;;;;;;;;;6305089;23;20018;-81
2024/04/07 04:58:05;;;;;;;3.40;1.40;;;;;;;;;;6358696;23;20822;-83
2024/04/07 05:00:38;;;;;;;3.63;1.38;;;;;;;;;;6348919;23;20425;-80
2024/04/07 05:03:31;;;;;;;3.10;1.20;;;;;;;;;;6349372;23;20021;-82
2024/04/07 05:06:09;;;;;;;5.22;1.90;;;;;;;;;;6350270;23;20024;-82
2024/04/07 05:08:54;;;;;;;2.87;1.53;;;;;;;;;;6397510;23;20032;-81
2024/04/07 05:12:18;;;;;;;6.65;1.50;;;;;;;;;;6403794;23;20259;-82
2024/04/07 05:14:52;;;;;;;3.95;1.60;;;;;;;;;;6397902;23;20031;-82
2024/04/07 05:17:23;;;;;;;5.38;1.65;;;;;;;;;;6371964;23;20127;-80
2024/04/07 05:19:55;;;;;;;4.80;1.45;;;;;;;;;;6390995;23;20047;-80
2024/04/07 05:22:30;;;;;;;4.10;1.42;;;;;;;;;;6373122;23;20032;-80
2024/04/07 05:25:10;;;;;;;3.15;1.20;;;;;;;;;;6348072;23;20028;-80
2024/04/07 05:32:23;;;;;;;3.00;1.63;;;;;;;;;;6401991;23;20004;-82
2024/04/07 05:34:54;;;;;;;3.67;1.58;;;;;;;;;;6322907;23;20553;-82
2024/04/07 05:37:27;;;;;;;3.95;1.50;;;;;;;;;;6265524;23;20018;-82
2024/04/07 05:39:58;;;;;;;5.05;2.28;;;;;;;;;;6265856;23;20090;-81
2024/04/07 05:42:30;;;;;;;6.82;2.38;;;;;;;;;;6305621;23;20006;-82
2024/04/07 05:45:04;;;;;;;3.88;1.92;;;;;;;;;;6305151;23;20021;-82
2024/04/07 05:47:37;;;;;;;4.72;2.40;;;;;;;;;;6306453;23;20017;-82
2024/04/07 05:50:08;;;;;;;3.95;1.15;;;;;;;;;;6284137;23;20018;-81
2024/04/07 05:52:41;;;;;;;2.45;1.20;;;;;;;;;;6280944;23;20012;-81
2024/04/07 05:55:25;;;;;;;3.92;1.45;;;;;;;;;;6282800;23;20006;-81
2024/04/07 05:57:58;;;;;;;2.30;1.38;;;;;;;;;;6290041;23;20041;-82
2024/04/07 06:00:30;;;;;;;2.97;1.50;;;;;;;;;;6323059;23;20018;-84
2024/04/07 06:03:03;;;;;;;4.13;1.50;;;;;;;;;;6276789;23;20018;-84
2024/04/07 06:05:35;;;;;;;2.70;1.60;;;;;;;;;;6315282;23;20049;-79
2024/04/07 06:08:08;;;;;;;3.08;1.35;;;;;;;;;;6337322;23;20022;-78
2024/04/07 06:10:41;;;;;;;;;;;;;;;;;;6314512;23;20505;-81
2024/04/07 06:13:13;;;;;;;4.97;1.48;;;;;;;;;;6319934;23;20588;-81
2024/04/07 06:15:46;;;;;;;3.95;1.67;;;;;;;;;;6316841;23;20032;-80
2024/04/07 06:18:19;;;;;;;4.00;1.45;;;;;;;;;;6273834;23;20085;-80
2024/04/07 06:20:50;;;;;;;4.78;1.58;;;;;;;;;;6320625;23;20101;-83
2024/04/07 06:23:23;;;;;;;3.92;1.52;;;;;;;;;;6307029;23;20025;-82
2024/04/07 06:25:54;;;;;;;2.10;1.08;;;;;;;;;;6350442;23;20029;-83
2024/04/07 06:28:25;;;;;;;4.05;1.80;;;;;;;;;;6304565;23;20026;-80
2024/04/07 06:30:58;;;;;;;3.77;1.73;;;;;;;;;;6302896;23;20026;-81
2024/04/07 06:33:32;;;;;;;4.32;1.45;;;;;;;;;;6302573;23;20018;-81
2024/04/07 06:36:06;;;;;;;3.35;1.30;;;;;;;;;;6329058;23;20049;-83
2024/04/07 06:38:38;;;;;;;3.53;1.30;;;;;;;;;;6328258;23;20069;-83
2024/04/07 06:41:09;;;;;;;4.18;1.30;;;;;;;;;;6328475;23;20022;-82
2024/04/07 06:43:41;;;;;;;4.00;1.65;;;;;;;;;;6304725;23;20033;-83
2024/04/07 06:46:14;;;;;;;3.58;1.30;;;;;;;;;;6297042;23;20022;-81
2024/04/07 06:48:48;;;;;;;3.92;1.55;;;;;;;;;;6289923;23;20041;-82
2024/04/07 06:51:19;;;;;;;3.15;1.40;;;;;;;;;;6315615;23;20664;-81
2024/04/07 06:53:50;;;;;;;3.90;1.17;;;;;;;;;;6287585;23;20026;-81
2024/04/07 06:56:25;;;;;;;3.47;1.35;;;;;;;;;;6313494;23;20492;-81
2024/04/07 06:58:57;;;;;;;3.40;1.27;;;;;;;;;;6319854;23;20018;-82
2024/04/07 07:01:28;;;;;;;1.60;1.13;;;;;;;;;;6287680;23;20028;-82
2024/04/07 07:04:05;;;;;;;3.95;1.67;;;;;;;;;;6285414;23;20018;-80
2024/04/07 07:06:36;;;;;;;3.45;1.40;;;;;;;;;;6309200;23;20378;-85
2024/04/07 07:09:10;;;;;;;6.30;1.83;;;;;;;;;;6287021;23;20081;-89
2024/04/07 07:11:41;;;;;;;3.80;1.65;;;;;;;;;;6298256;23;20366;-82
2024/04/07 07:14:13;;;;;;;4.05;1.58;;;;;;;;;;6311048;23;20109;-81
2024/04/07 07:16:44;;;;;;;5.32;1.65;;;;;;;;;;6311583;23;20362;-82
2024/04/07 07:19:19;;;;;;;3.38;1.25;;;;;;;;;;6316455;23;20026;-83
2024/04/07 07:21:53;;;;;;;2.67;1.10;;;;;;;;;;6350547;23;20026;-81
2024/04/07 07:24:25;;;;;;;2.40;1.30;;;;;;;;;;6316216;23;20009;-82
2024/04/07 07:26:59;;;;;;;2.90;1.10;;;;;;;;;;6345695;23;20086;-81
2024/04/07 07:29:31;;;;;;;3.72;1.40;;;;;;;;;;6339955;23;20022;-83
2024/04/07 07:32:02;;;;;;;2.10;1.05;;;;;;;;;;6362300;23;20041;-85
2024/04/07 07:34:39;;;;;;;1.92;1.08;;;;;;;;;;6340591;23;20018;-84
2024/04/07 07:37:10;;;;;;;3.92;1.48;;;;;;;;;;6335953;23;20537;-82
2024/04/07 07:39:45;;;;;;;2.55;1.48;;;;;;;;;;6305107;23;20026;-82
2024/04/07 07:42:15;;;;;;;2.70;1.05;;;;;;;;;;6309463;23;20049;-84
2024/04/07 07:44:49;;;;;;;4.63;1.33;;;;;;;;;;6307798;23;20032;-84
2024/04/07 07:47:21;;;;;;;3.63;1.20;;;;;;;;;;6283931;23;20104;-83
2024/04/07 07:49:55;;;;;;;2.78;1.10;;;;;;;;;;6302848;23;20026;-83
2024/04/07 07:52:30;;;;;;;3.65;1.10;;;;;;;;;;6329239;23;20029;-82
2024/04/07 07:55:03;;;;;;;3.58;1.35;;;;;;;;;;6331951;23;20441;-81
2024/04/07 07:57:35;;;;;;;4.22;1.65;;;;;;;;;;6338203;23;20069;-79
2024/04/07 08:00:07;;;;;;;4.22;1.10;;;;;;;;;;6317421;23;20022;-81
2024/04/07 08:02:40;;;;;;;2.83;1.20;;;;;;;;;;6336988;23;20025;-82
2024/04/07 08:05:13;;;;;;;2.50;1.00;;;;;;;;;;6340543;23;20367;-83
2024/04/07 08:07:44;;;;;;;2.90;1.25;;;;;;;;;;6336668;23;20022;-82
2024/04/07 08:10:16;;;;;;;2.97;1.15;;;;;;;;;;6335402;23;20017;-81
2024/04/07 08:12:50;;;;;;;4.38;1.10;;;;;;;;;;6318954;23;20033;-81
2024/04/07 08:15:23;;;;;;;4.18;1.10;;;;;;;;;;6317171;23;20025;-82
2024/04/07 08:17:55;;;;;;;1.73;0.93;;;;;;;;;;6346225;23;20025;-82
2024/04/07 08:20:28;;;;;;;3.10;1.10;;;;;;;;;;6319059;23;20029;-83
2024/04/07 08:23:00;;;;;;;2.22;1.05;;;;;;;;;;6348484;23;20076;-82
2024/04/07 08:25:32;;;;;;;3.20;1.35;;;;;;;;;;6347892;23;20028;-82
2024/04/07 08:28:04;;;;;;;5.55;1.40;;;;;;;;;;6296061;23;20139;-82
2024/04/07 08:30:39;;;;;;;4.00;1.20;;;;;;;;;;6351806;23;20013;-83
2024/04/07 08:33:12;;;;;;;2.78;1.10;;;;;;;;;;6279950;23;20045;-82
2024/04/07 08:35:48;;;;;;;5.93;1.50;;;;;;;;;;6330432;23;20044;-82
2024/04/07 08:38:21;;;;;;;3.35;1.33;;;;;;;;;;6336338;23;20045;-82
2024/04/07 08:40:57;;;;;;;2.35;1.20;;;;;;;;;;6316725;23;20064;-81
2024/04/07 08:43:29;;;;;;;4.43;1.55;;;;;;;;;;6341778;23;20052;-81
2024/04/07 08:46:00;;;;;;;4.65;1.70;;;;;;;;;;6340051;23;20049;-81
2024/04/07 08:48:32;;;;;;;3.30;1.35;;;;;;;;;;6353972;23;20025;-82
2024/04/07 08:51:09;;;;;;;3.30;1.83;;;;;;;;;;6307148;23;20156;-83
2024/04/07 08:53:42;;;;;;;3.67;1.48;;;;;;;;;;6335833;23;20035;-82
2024/04/07 08:56:19;;;;;;;5.85;1.58;;;;;;;;;;6337951;23;20356;-83
2024/04/07 08:58:52;;;;;;;2.95;1.42;;;;;;;;;;6335339;23;20068;-82
2024/04/07 09:01:31;;;;;;;4.40;1.52;;;;;;;;;;6311882;23;20005;-89
2024/04/07 09:07:05;;;;;;;3.10;1.27;;;;;;;;;;6398378;23;20093;-86
2024/04/07 09:09:36;;;;;;;4.03;1.45;;;;;;;;;;6367021;23;20025;-89
2024/04/07 09:12:09;;;;;;;2.78;1.40;;;;;;;;;;6357105;23;20096;-89
2024/04/07 09:14:45;;;;;;;3.25;1.48;;;;;;;;;;6314954;23;20049;-83
2024/04/07 09:17:18;;;;;;;3.97;1.20;;;;;;;;;;6367510;23;20021;-83
2024/04/07 09:19:52;;;;;;;2.95;1.20;;;;;;;;;;6338437;23;20064;-83
2024/04/07 09:22:25;;;;;;;2.95;1.17;;;;;;;;;;6386866;23;20017;-82
2024/04/07 09:24:59;;;;;;;2.58;1.20;;;;;;;;;;6386275;23;20028;-84
2024/04/07 09:27:34;;;;;;;3.15;1.20;;;;;;;;;;6360111;23;20061;-83
2024/04/07 09:30:06;;;;;;;3.85;1.15;;;;;;;;;;6382830;23;20021;-84
2024/04/07 09:32:37;;;;;;;4.18;1.00;;;;;;;;;;6385563;23;20032;-83
2024/04/07 09:35:11;;;;;;;3.47;1.20;;;;;;;;;;6363805;23;20013;-83
2024/04/07 09:37:45;;;;;;;3.78;1.33;;;;;;;;;;6362437;23;20056;-83
2024/04/07 09:40:20;;;;;;;5.03;1.63;;;;;;;;;;6387026;23;20025;-84
2024/04/07 09:42:55;;;;;;;4.70;1.20;;;;;;;;;;6386206;23;20045;-84
2024/04/07 09:45:27;;;;;;;2.97;1.08;;;;;;;;;;6355009;23;20081;-83
2024/04/07 09:47:59;;;;;;;2.92;1.00;;;;;;;;;;6351639;23;20181;-83
2024/04/07 09:50:33;;;;;;;4.85;1.30;;;;;;;;;;6374423;23;20025;-83
2024/04/07 09:53:12;;;;;;;5.45;1.85;;;;;;;;;;6377152;23;20024;-82
2024/04/07 09:55:45;;;;;;;3.00;1.10;;;;;;;;;;6347390;23;20068;-83
2024/04/07 09:58:16;;;;;;;4.50;1.20;;;;;;;;;;6348233;23;20033;-83
2024/04/07 10:00:49;;;;;;;3.90;1.08;;;;;;;;;;6322168;23;20106;-83
2024/04/07 10:03:24;;;;;;;1.77;1.02;;;;;;;;;;6369320;23;20050;-82
2024/04/07 10:05:56;;;;;;;5.18;1.33;;;;;;;;;;6369053;23;20014;-82
2024/04/07 10:08:28;;;;;;;2.67;0.90;;;;;;;;;;6366285;23;20040;-83
2024/04/07 10:11:00;;;;;;;3.17;1.30;;;;;;;;;;6366754;23;20065;-82
2024/04/07 10:13:32;;;;;;;1.80;0.80;;;;;;;;;;6363212;23;20025;-82
2024/04/07 10:16:04;;;;;;;5.00;1.23;;;;;;;;;;6346248;23;20041;-83
2024/04/07 10:18:39;;;;;;;2.40;1.00;;;;;;;;;;6372455;23;20086;-82
2024/04/07 10:21:16;;;;;;;6.13;1.25;;;;;;;;;;6346715;23;20032;-83
2024/04/07 10:23:51;;;;;;;4.55;1.65;;;;;;;;;;6378218;23;20024;-83
2024/04/07 10:26:23;;;;;;;3.00;0.93;;;;;;;;;;6380644;23;20021;-83
2024/04/07 10:28:56;;;;;;;3.70;1.13;;;;;;;;;;6378435;23;20521;-83
2024/04/07 10:31:33;;;;;;;4.32;1.02;;;;;;;;;;6378815;23;20021;-83
2024/04/07 10:34:04;;;;;;;;;;;;;;;;;;6372675;23;20055;-83
2024/04/07 10:36:36;;;;;;;3.10;1.15;;;;;;;;;;6378312;23;19995;-83
2024/04/07 10:39:19;;;;;;;4.28;1.20;;;;;;;;;;6357276;23;20036;-83
2024/04/07 10:41:51;;;;;;;3.58;2.10;;;;;;;;;;6291143;23;20025;-85
2024/04/07 10:44:24;;;;;;;2.83;1.75;;;;;;;;;;6330196;23;20108;-85
2024/04/07 10:46:58;;;;;;;3.80;3.30;;;;;;;;;;6339558;23;20030;-89
2024/04/07 10:49:29;;;;;;;5.78;3.25;;;;;;;;;;6388783;23;20020;-85
2024/04/07 10:52:02;;;;;;;5.10;2.55;;;;;;;;;;6337549;23;20036;-86
2024/04/07 10:54:36;;;;;;;3.10;1.67;;;;;;;;;;6333876;23;20024;-86
2024/04/07 10:57:13;;;;;;;2.20;1.27;;;;;;;;;;6400618;23;20384;-85
2024/04/07 10:59:44;;;;;;;5.40;3.03;;;;;;;;;;6372899;23;20111;-85
2024/04/07 11:02:20;;;;;;;2.80;1.80;;;;;;;;;;6396151;23;20024;-86
2024/04/07 11:04:52;;;;;;;4.93;3.40;;;;;;;;;;6370456;23;20027;-86
2024/04/07 11:07:25;;;;;;;2.97;1.80;;;;;;;;;;6399446;23;20336;-86
2024/04/07 11:10:01;;;;;;;3.90;1.80;;;;;;;;;;6375460;23;20027;-86
2024/04/07 11:12:35;;;;;;;3.50;1.70;;;;;;;;;;6399154;23;20028;-85
2024/04/07 11:15:14;;;;;;;4.67;4.17;;;;;;;;;;6390751;23;20016;-86
2024/04/07 11:17:46;;;;;;;5.18;1.25;;;;;;;;;;6354118;23;20029;-87
2024/04/07 11:20:18;;;;;;;2.22;1.40;;;;;;;;;;6376290;23;20021;-86
2024/04/07 11:22:50;;;;;;;3.10;1.13;;;;;;;;;;6374760;23;20122;-86
2024/04/07 11:25:23;;;;;;;2.00;1.40;;;;;;;;;;6373437;23;20337;-87
2024/04/07 11:27:57;;;;;;;1.27;0.75;;;;;;;;;;6372151;23;20056;-87
2024/04/07 11:30:33;;;;;;;2.63;0.90;;;;;;;;;;6373329;23;20024;-85
2024/04/07 11:33:05;;;;;;;3.55;1.90;;;;;;;;;;6349784;23;20104;-85
2024/04/07 11:35:38;;;;;;;2.30;0.70;;;;;;;;;;6396907;23;20021;-85
2024/04/07 11:38:13;;;;;;;2.10;0.80;;;;;;;;;;6398939;23;20507;-85
2024/04/07 11:40:47;;;;;;;5.15;1.40;;;;;;;;;;6360847;23;20024;-86
2024/04/07 11:43:19;;;;;;;2.63;1.30;;;;;;;;;;6372393;23;20465;-86
2024/04/07 11:45:50;;;;;;;1.52;0.60;;;;;;;;;;6359183;23;20754;-86
2024/04/07 11:48:22;;;;;;;4.15;1.10;;;;;;;;;;6401081;23;20017;-86
2024/04/07 11:50:53;;;;;;;1.98;1.05;;;;;;;;;;6399903;23;20016;-85
2024/04/07 11:53:25;;;;;;;3.35;1.00;;;;;;;;;;6376773;23;20016;-85
2024/04/07 11:55:58;;;;;;;1.48;0.73;;;;;;;;;;6397530;23;20024;-86
2024/04/07 11:58:30;;;;;;;1.30;0.80;;;;;;;;;;6398251;23;20044;-84
2024/04/07 12:01:04;;;;;;;2.00;0.80;;;;;;;;;;6372415;23;20472;-84
2024/04/07 12:03:38;;;;;;;2.35;1.60;;;;;;;;;;6347728;23;20031;-85
2024/04/07 12:06:09;;;;;;;;;;;;;;;;;;6391433;23;20051;-84
2024/04/07 12:08:41;;;;;;;2.00;1.00;;;;;;;;;;6400214;23;19920;-86
2024/04/07 12:11:14;;;;;;;2.03;0.90;;;;;;;;;;6374645;23;20124;-88
2024/04/07 12:13:48;;;;;;;1.50;0.75;;;;;;;;;;6375831;23;20021;-86
2024/04/07 12:16:21;;;;;;;4.45;1.10;;;;;;;;;;6376765;23;20032;-87
2024/04/07 12:18:53;;;;;;;2.07;1.00;;;;;;;;;;6346493;23;20024;-85
2024/04/07 12:21:25;;;;;;;4.25;0.80;;;;;;;;;;6375595;23;20460;-84
2024/04/07 12:24:00;;;;;;;1.58;0.90;;;;;;;;;;6402280;23;20020;-84
2024/04/07 12:26:32;;;;;;;2.05;0.65;;;;;;;;;;6371916;23;20048;-85
2024/04/07 12:29:04;;;;;;;2.80;1.25;;;;;;;;;;6348130;23;20361;-86
2024/04/07 12:31:35;;;;;;;1.67;0.55;;;;;;;;;;6375782;23;20044;-86
2024/04/07 12:34:07;;;;;;;1.75;0.60;;;;;;;;;;6372723;23;20535;-83
2024/04/07 12:36:41;;;;;;;2.40;0.88;;;;;;;;;;6398312;23;20020;-83
2024/04/07 12:39:15;;;;;;;3.80;2.95;;;;;;;;;;6376040;23;20024;-84
2024/04/07 12:41:49;;;;;;;4.28;1.10;;;;;;;;;;6373581;23;20017;-84
2024/04/07 12:44:21;;;;;;;4.40;2.60;;;;;;;;;;6373266;23;20029;-83
2024/04/07 12:46:57;;;;;;;3.85;2.38;;;;;;;;;;6398499;23;20387;-85
2024/04/07 12:49:30;;;;;;;2.30;1.25;;;;;;;;;;6399372;23;20021;-84
2024/04/07 12:52:01;;;;;;;3.05;1.63;;;;;;;;;;6395002;23;20103;-84
2024/04/07 12:54:36;;;;;;;5.47;2.53;;;;;;;;;;6396906;23;20036;-85
2024/04/07 12:57:07;;;;;;;;;;;;;;;;;;6397376;23;20483;-84
2024/04/07 12:59:40;;;;;;;1.73;1.00;;;;;;;;;;6396435;23;19916;-83
2024/04/07 13:02:12;;;;;;;3.20;1.10;;;;;;;;;;6371108;23;20739;-84
2024/04/07 13:04:47;;;;;;;2.97;0.70;;;;;;;;;;6398010;23;20021;-83
2024/04/07 13:07:18;;;;;;;2.03;0.98;;;;;;;;;;6394843;23;20059;-83
2024/04/07 13:09:52;;;;;;;3.60;0.80;;;;;;;;;;6396023;23;20388;-83
2024/04/07 13:12:23;;;;;;;2.45;1.45;;;;;;;;;;6397082;23;20333;-83
2024/04/07 13:14:59;;;;;;;5.25;2.20;;;;;;;;;;6397654;23;20095;-83
2024/04/07 13:17:29;;;;;;;2.75;1.67;;;;;;;;;;6397052;23;20027;-82
2024/04/07 13:20:05;;;;;;;4.10;1.90;;;;;;;;;;6396106;23;20717;-83
2024/04/07 13:22:37;;;;;;;2.10;1.17;;;;;;;;;;6399084;23;20020;-82
2024/04/07 13:25:09;;;;;;;4.15;1.88;;;;;;;;;;6398820;23;20024;-81
2024/04/07 13:27:44;;;;;;;2.47;1.30;;;;;;;;;;6375115;23;20460;-80
2024/04/07 13:30:18;;;;;;;2.13;1.27;;;;;;;;;;6372934;23;20047;-81
2024/04/07 13:32:48;;;;;;;;;;;;;;;;;;6400392;23;20023;-82
2024/04/07 13:35:22;;;;;;;1.50;0.80;;;;;;;;;;6372828;23;19920;-83
2024/04/07 13:37:53;;;;;;;;;;;;;;;;;;6372778;23;20021;-83
2024/04/07 13:40:25;;;;;;;0.90;0.30;;;;;;;;;;6370205;23;20728;-83
2024/04/07 13:42:56;;;;;;;1.58;0.77;;;;;;;;;;6395007;23;20464;-85
2024/04/07 13:45:30;;;;;;;1.63;0.50;;;;;;;;;;6378003;23;20031;-82
2024/04/07 13:48:01;;;;;;;1.37;0.40;;;;;;;;;;6372983;23;20079;-84
2024/04/07 13:50:32;;;;;;;2.08;0.60;;;;;;;;;;6385739;23;20302;-82
2024/04/07 13:53:04;;;;;;;3.67;0.85;;;;;;;;;;6357305;23;20468;-81
2024/04/07 13:55:36;;;;;;;1.85;0.60;;;;;;;;;;6408076;23;20495;-84
2024/04/07 13:58:07;;;;;;;1.58;0.65;;;;;;;;;;6404912;23;20360;-80
2024/04/07 14:00:44;;;;;;;2.35;0.80;;;;;;;;;;6401050;23;20024;-80
2024/04/07 14:03:15;;;;;;;2.63;0.90;;;;;;;;;;6402030;23;20021;-83
2024/04/07 14:05:57;;;;;;;3.50;1.00;;;;;;;;;;6371415;23;20080;-83
2024/04/07 14:08:52;;;;;;;1.25;0.60;;;;;;;;;;6327335;23;20071;-81
2024/04/07 14:11:27;;;;;;;1.08;0.70;;;;;;;;;;6402734;23;20028;-81
2024/04/07 14:14:09;;;;;;;1.77;0.60;;;;;;;;;;6349876;23;20319;-80
2024/04/07 14:16:43;;;;;;;2.75;0.70;;;;;;;;;;6403301;23;20020;-82
2024/04/07 14:19:22;;;;;;;1.42;0.73;;;;;;;;;;6383946;23;20120;-80
2024/04/07 14:22:28;;;;;;;2.55;0.60;;;;;;;;;;6357165;23;20452;-81
2024/04/07 14:25:02;;;;;;;1.05;0.65;;;;;;;;;;6358948;23;20021;-80
2024/04/07 14:27:34;;;;;;;2.60;0.80;;;;;;;;;;6357509;23;20026;-82
2024/04/07 14:30:11;;;;;;;2.35;1.00;;;;;;;;;;6353677;23;20086;-80
2024/04/07 14:32:44;;;;;;;1.77;0.93;;;;;;;;;;6406713;23;20025;-80
2024/04/07 14:35:15;;;;;;;2.35;0.80;;;;;;;;;;6405308;23;20040;-79
2024/04/07 14:37:47;;;;;;;2.22;1.00;;;;;;;;;;6402850;23;20095;-80
2024/04/07 14:40:19;;;;;;;3.42;0.98;;;;;;;;;;6402503;23;20042;-79
2024/04/07 14:42:51;;;;;;;1.95;0.60;;;;;;;;;;6377735;23;20087;-80
2024/04/07 14:45:23;;;;;;;3.80;1.10;;;;;;;;;;6381889;23;20104;-79
2024/04/07 14:47:55;;;;;;;2.58;0.93;;;;;;;;;;6348910;23;20032;-80
2024/04/07 14:50:27;;;;;;;1.95;0.80;;;;;;;;;;6377693;23;20051;-80
2024/04/07 14:52:59;;;;;;;3.55;1.10;;;;;;;;;;6353577;23;20020;-80
2024/04/07 14:55:30;;;;;;;1.75;0.70;;;;;;;;;;6355285;23;20025;-80
2024/04/07 14:58:05;;;;;;;3.13;0.70;;;;;;;;;;6377196;23;20020;-80
2024/04/07 15:00:37;;;;;;;2.05;0.90;;;;;;;;;;6366855;23;20016;-80
2024/04/07 15:03:10;;;;;;;4.47;1.27;;;;;;;;;;6398050;23;20017;-80
2024/04/07 15:05:43;;;;;;;3.95;1.00;;;;;;;;;;6401175;23;20666;-80
2024/04/07 15:08:14;;;;;;;2.17;1.13;;;;;;;;;;6374105;23;20423;-79
2024/04/07 15:10:58;;;;;;;3.83;0.90;;;;;;;;;;6373695;23;20024;-79
2024/04/07 15:13:29;;;;;;;2.67;0.80;;;;;;;;;;6373849;23;20139;-80
2024/04/07 15:16:03;;;;;;;3.30;0.80;;;;;;;;;;6399436;23;20049;-80
2024/04/07 15:18:36;;;;;;;3.83;1.20;;;;;;;;;;6375589;23;20024;-80
2024/04/07 15:21:08;;;;;;;2.15;1.73;;;;;;;;;;6374692;23;20024;-80
2024/04/07 15:23:44;;;;;;;2.88;0.75;;;;;;;;;;6353489;23;20415;-80
2024/04/07 15:26:16;;;;;;;3.05;1.00;;;;;;;;;;6401391;23;20055;-80
2024/04/07 15:28:47;;;;;;;4.97;1.20;;;;;;;;;;6351088;23;20020;-80
2024/04/07 15:31:19;;;;;;;3.05;0.70;;;;;;;;;;6400242;23;20091;-79
2024/04/07 15:33:52;;;;;;;9.45;1.27;;;;;;;;;;6355730;23;20031;-80
2024/04/07 15:36:23;;;;;;;5.10;1.15;;;;;;;;;;6403292;23;20025;-84
2024/04/07 15:38:54;;;;;;;2.30;1.00;;;;;;;;;;6398546;23;20031;-79
2024/04/07 15:41:27;;;;;;;4.78;1.33;;;;;;;;;;6396970;23;20024;-82
2024/04/07 15:43:58;;;;;;;3.15;0.90;;;;;;;;;;6394717;23;20050;-79
2024/04/07 15:46:33;;;;;;;4.97;0.93;;;;;;;;;;6348489;23;20024;-75
2024/04/07 15:49:07;;;;;;;1.23;0.70;;;;;;;;;;6395416;23;20107;-81
2024/04/07 15:51:41;;;;;;;3.50;1.30;;;;;;;;;;6350374;23;20535;-80
2024/04/07 15:54:12;;;;;;;2.85;1.40;;;;;;;;;;6400061;23;20020;-80
2024/04/07 15:56:45;;;;;;;1.92;1.00;;;;;;;;;;6377072;23;20027;-80
2024/04/07 15:59:17;;;;;;;2.25;1.45;;;;;;;;;;6377383;23;20364;-80
2024/04/07 16:01:49;;;;;;;1.75;0.93;;;;;;;;;;6375420;23;20020;-79
2024/04/07 16:04:21;;;;;;;1.85;0.85;;;;;;;;;;6376193;23;20032;-81
2024/04/07 16:06:55;;;;;;;2.53;0.85;;;;;;;;;;6372583;23;20031;-81
2024/04/07 16:09:28;;;;;;;2.35;0.85;;;;;;;;;;6374563;23;20112;-80
2024/04/07 16:12:02;;;;;;;2.30;1.08;;;;;;;;;;6398701;23;20464;-81
2024/04/07 16:14:34;;;;;;;3.30;1.20;;;;;;;;;;6348455;23;20020;-80
2024/04/07 16:17:05;;;;;;;2.95;1.42;;;;;;;;;;6395568;23;20120;-81
2024/04/07 16:19:38;;;;;;;3.80;1.10;;;;;;;;;;6370115;23;20021;-80
2024/04/07 16:22:10;;;;;;;3.20;1.00;;;;;;;;;;6371664;23;20063;-81
2024/04/07 16:24:41;;;;;;;1.92;0.82;;;;;;;;;;6394362;23;20031;-80
2024/04/07 16:27:13;;;;;;;2.05;1.00;;;;;;;;;;6371864;23;20029;-80
2024/04/07 16:29:48;;;;;;;2.08;0.98;;;;;;;;;;6347673;23;20459;-79
2024/04/07 16:32:22;;;;;;;5.07;1.33;;;;;;;;;;6351006;23;20455;-78
2024/04/07 16:34:56;;;;;;;1.98;1.00;;;;;;;;;;6369772;23;20039;-81
2024/04/07 16:37:27;;;;;;;2.50;1.00;;;;;;;;;;6399394;23;20017;-85
2024/04/07 16:39:59;;;;;;;3.35;1.58;;;;;;;;;;6352227;23;20746;-82
2024/04/07 16:42:30;;;;;;;3.88;1.20;;;;;;;;;;6342246;23;20028;-81
2024/04/07 16:45:02;;;;;;;2.67;1.00;;;;;;;;;;6392011;23;20020;-82